createdAt,value
2023-07-01T00:02:08.486Z,25.20
2023-07-01T00:04:35.326Z,25.10
2023-07-01T00:07:02.061Z,25.10
2023-07-01T00:09:28.669Z,25.00
2023-07-01T00:11:55.367Z,25.00
2023-07-01T00:14:21.967Z,25.00
2023-07-01T00:16:48.662Z,25.00
2023-07-01T00:19:15.445Z,25.00
2023-07-01T00:21:42.200Z,24.90
2023-07-01T00:24:08.900Z,24.90
2023-07-01T00:26:36.146Z,24.80
2023-07-01T00:29:02.824Z,24.90
2023-07-01T00:31:29.534Z,24.80
2023-07-01T00:33:56.234Z,24.80
2023-07-01T00:36:22.886Z,24.80
2023-07-01T00:38:49.577Z,24.80
2023-07-01T00:41:18.781Z,24.70
2023-07-01T00:43:45.594Z,24.80
2023-07-01T00:46:12.296Z,24.70
2023-07-01T00:48:39.003Z,24.70
2023-07-01T00:51:05.677Z,24.80
2023-07-01T00:53:32.335Z,24.80
2023-07-01T00:55:58.936Z,24.90
2023-07-01T00:58:25.620Z,25.00
2023-07-01T01:00:52.326Z,25.00
2023-07-01T01:03:29.462Z,25.10
2023-07-01T01:06:11.566Z,25.10
2023-07-01T01:08:59.935Z,25.10
2023-07-01T01:11:26.755Z,25.10
2023-07-01T01:13:53.852Z,25.10
2023-07-01T01:16:21.256Z,25.00
2023-07-01T01:18:48.257Z,25.00
2023-07-01T01:21:15.332Z,25.00
2023-07-01T01:23:47.240Z,24.90
2023-07-01T01:26:15.867Z,24.90
2023-07-01T01:28:42.499Z,24.90
2023-07-01T01:31:09.333Z,24.80
2023-07-01T01:33:36.996Z,24.80
2023-07-01T01:36:07.971Z,24.80
2023-07-01T01:38:34.776Z,24.80
2023-07-01T01:41:09.189Z,24.80
2023-07-01T01:43:39.827Z,24.70
2023-07-01T01:46:07.333Z,24.70
2023-07-01T01:48:34.039Z,24.70
2023-07-01T01:51:00.717Z,24.70
2023-07-01T01:53:27.576Z,24.70
2023-07-01T01:55:54.817Z,24.60
2023-07-01T01:58:21.525Z,24.60
2023-07-01T02:00:48.540Z,24.60
2023-07-01T02:03:15.615Z,24.60
2023-07-01T02:05:42.473Z,24.70
2023-07-01T02:08:09.222Z,24.80
2023-07-01T02:10:35.941Z,24.90
2023-07-01T02:13:03.938Z,25.00
2023-07-01T02:15:30.771Z,25.00
2023-07-01T02:17:57.517Z,25.10
2023-07-01T02:20:24.293Z,25.00
2023-07-01T02:22:50.967Z,25.00
2023-07-01T02:25:17.961Z,25.00
2023-07-01T02:27:44.903Z,25.00
2023-07-01T02:30:11.788Z,24.90
2023-07-01T02:32:38.608Z,24.90
2023-07-01T02:35:05.819Z,24.90
2023-07-01T02:37:32.499Z,24.80
2023-07-01T02:39:59.314Z,24.80
2023-07-01T02:42:26.476Z,24.80
2023-07-01T02:44:53.189Z,24.80
2023-07-01T02:47:19.912Z,24.70
2023-07-01T02:49:48.425Z,24.70
2023-07-01T02:52:16.431Z,24.60
2023-07-01T02:54:43.110Z,24.60
2023-07-01T02:57:10.301Z,24.60
2023-07-01T02:59:37.281Z,24.60
2023-07-01T03:02:05.285Z,24.50
2023-07-01T03:04:32.292Z,24.50
2023-07-01T03:06:59.124Z,24.50
2023-07-01T03:09:25.783Z,24.50
2023-07-01T03:11:55.383Z,24.50
2023-07-01T03:14:22.021Z,24.50
2023-07-01T03:16:51.423Z,24.50
2023-07-01T03:19:18.369Z,24.50
2023-07-01T03:21:45.467Z,24.40
2023-07-01T03:24:12.482Z,24.50
2023-07-01T03:26:39.120Z,24.60
2023-07-01T03:29:05.747Z,24.70
2023-07-01T03:31:34.244Z,24.80
2023-07-01T03:34:02.809Z,24.90
2023-07-01T03:36:29.524Z,25.00
2023-07-01T03:38:57.059Z,24.90
2023-07-01T03:41:23.785Z,24.90
2023-07-01T03:43:50.742Z,24.80
2023-07-01T03:46:18.272Z,24.80
2023-07-01T03:48:44.934Z,24.80
2023-07-01T03:51:11.570Z,24.70
2023-07-01T03:53:38.179Z,24.70
2023-07-01T03:56:05.206Z,24.70
2023-07-01T03:58:31.838Z,24.60
2023-07-01T04:00:58.569Z,24.60
2023-07-01T04:03:25.442Z,24.60
2023-07-01T04:05:53.560Z,24.60
2023-07-01T04:08:20.348Z,24.60
2023-07-01T04:10:47.357Z,24.50
2023-07-01T04:13:14.277Z,24.50
2023-07-01T04:15:41.016Z,24.40
2023-07-01T04:18:07.767Z,24.40
2023-07-01T04:20:34.477Z,24.40
2023-07-01T04:23:03.372Z,24.40
2023-07-01T04:25:30.496Z,24.40
2023-07-01T04:27:58.326Z,24.40
2023-07-01T04:30:25.067Z,24.40
2023-07-01T04:32:51.885Z,24.40
2023-07-01T04:35:18.722Z,24.40
2023-07-01T04:37:45.534Z,24.30
2023-07-01T04:40:13.190Z,24.40
2023-07-01T04:42:46.443Z,24.40
2023-07-01T04:45:13.130Z,24.50
2023-07-01T04:47:39.805Z,24.70
2023-07-01T04:50:06.830Z,24.80
2023-07-01T04:52:33.666Z,24.80
2023-07-01T04:55:00.367Z,24.80
2023-07-01T04:57:27.126Z,24.80
2023-07-01T04:59:54.452Z,24.80
2023-07-01T05:02:21.874Z,24.70
2023-07-01T05:04:49.077Z,24.70
2023-07-01T05:07:16.309Z,24.70
2023-07-01T05:09:42.976Z,24.60
2023-07-01T05:12:10.190Z,24.60
2023-07-01T05:14:36.823Z,24.60
2023-07-01T05:17:04.362Z,24.50
2023-07-01T05:19:31.038Z,24.50
2023-07-01T05:21:57.729Z,24.50
2023-07-01T05:24:24.405Z,24.50
2023-07-01T05:26:51.438Z,24.20
2023-07-01T05:29:18.606Z,24.00
2023-07-01T05:31:45.458Z,23.70
2023-07-01T05:34:12.092Z,23.50
2023-07-01T05:36:39.073Z,23.30
2023-07-01T05:39:05.830Z,23.20
2023-07-01T05:41:32.576Z,23.10
2023-07-01T05:44:00.274Z,23.10
2023-07-01T05:46:28.793Z,23.10
2023-07-01T05:48:55.546Z,23.00
2023-07-01T05:51:22.515Z,23.00
2023-07-01T05:53:49.512Z,23.00
2023-07-01T05:56:16.503Z,23.00
2023-07-01T05:58:43.257Z,22.90
2023-07-01T06:01:09.911Z,22.90
2023-07-01T06:03:36.696Z,22.80
2023-07-01T06:06:03.432Z,22.70
2023-07-01T06:08:30.151Z,22.70
2023-07-01T06:10:56.790Z,22.60
2023-07-01T06:13:23.421Z,22.50
2023-07-01T06:15:50.119Z,22.40
2023-07-01T06:18:16.817Z,22.40
2023-07-01T06:20:44.503Z,22.40
2023-07-01T06:23:11.590Z,22.30
2023-07-01T06:25:38.346Z,22.30
2023-07-01T06:28:05.583Z,22.30
2023-07-01T06:30:32.243Z,22.40
2023-07-01T06:32:58.991Z,22.40
2023-07-01T06:35:25.666Z,22.30
2023-07-01T06:37:52.383Z,22.30
2023-07-01T06:40:19.088Z,22.40
2023-07-01T06:42:47.469Z,22.40
2023-07-01T06:45:14.236Z,22.40
2023-07-01T06:47:40.907Z,22.40
2023-07-01T06:50:08.015Z,22.40
2023-07-01T06:52:34.679Z,22.40
2023-07-01T06:55:01.697Z,22.50
2023-07-01T06:57:29.680Z,22.50
2023-07-01T06:59:56.397Z,22.50
2023-07-01T07:02:23.957Z,22.60
2023-07-01T07:04:51.403Z,22.60
2023-07-01T07:07:19.745Z,22.60
2023-07-01T07:09:46.452Z,22.70
2023-07-01T07:12:13.072Z,22.70
2023-07-01T07:14:40.154Z,22.90
2023-07-01T07:17:07.131Z,23.00
2023-07-01T07:19:34.507Z,23.20
2023-07-01T07:22:01.147Z,23.30
2023-07-01T07:24:27.860Z,23.70
2023-07-01T07:26:57.072Z,23.50
2023-07-01T07:29:24.056Z,23.50
2023-07-01T07:31:50.844Z,23.50
2023-07-01T07:34:17.507Z,23.50
2023-07-01T07:36:44.685Z,23.60
2023-07-01T07:39:13.465Z,23.60
2023-07-01T07:41:40.793Z,23.60
2023-07-01T07:44:07.983Z,23.70
2023-07-01T07:46:35.414Z,23.70
2023-07-01T07:49:02.777Z,23.70
2023-07-01T07:51:29.662Z,23.70
2023-07-01T07:53:56.736Z,23.70
2023-07-01T07:56:23.810Z,23.80
2023-07-01T07:58:50.695Z,23.80
2023-07-01T08:01:17.862Z,23.80
2023-07-01T08:03:45.062Z,23.80
2023-07-01T08:06:11.828Z,23.80
2023-07-01T08:08:41.659Z,23.80
2023-07-01T08:11:08.509Z,23.80
2023-07-01T08:13:35.525Z,23.80
2023-07-01T08:16:02.875Z,23.90
2023-07-01T08:18:29.910Z,23.80
2023-07-01T08:20:57.394Z,23.90
2023-07-01T08:23:24.795Z,23.90
2023-07-01T08:25:52.044Z,24.00
2023-07-01T08:28:19.492Z,24.10
2023-07-01T08:30:46.944Z,24.10
2023-07-01T08:33:14.419Z,24.20
2023-07-01T08:35:41.316Z,24.40
2023-07-01T08:38:08.311Z,24.50
2023-07-01T08:40:37.975Z,24.50
2023-07-01T08:43:05.485Z,24.50
2023-07-01T08:45:32.484Z,24.50
2023-07-01T08:47:59.998Z,24.50
2023-07-01T08:50:27.843Z,24.50
2023-07-01T08:52:56.542Z,24.40
2023-07-01T08:55:23.168Z,24.40
2023-07-01T08:57:49.817Z,24.40
2023-07-01T09:00:16.462Z,24.40
2023-07-01T09:02:43.669Z,24.40
2023-07-01T09:05:10.457Z,24.40
2023-07-01T09:07:37.290Z,24.40
2023-07-01T09:10:04.448Z,24.30
2023-07-01T09:12:31.179Z,24.30
2023-07-01T09:15:01.632Z,24.30
2023-07-01T09:17:41.286Z,24.30
2023-07-01T09:20:09.389Z,24.30
2023-07-01T09:22:36.960Z,24.30
2023-07-01T09:25:03.760Z,24.30
2023-07-01T09:27:48.553Z,24.30
2023-07-01T09:30:22.121Z,24.30
2023-07-01T09:32:49.077Z,24.30
2023-07-01T09:35:19.028Z,24.30
2023-07-01T09:37:46.842Z,24.30
2023-07-01T09:40:21.020Z,24.30
2023-07-01T09:42:51.555Z,24.30
2023-07-01T09:45:18.205Z,24.30
2023-07-01T09:47:45.917Z,24.40
2023-07-01T09:50:25.426Z,24.40
2023-07-01T09:52:53.488Z,24.50
2023-07-01T09:55:20.455Z,24.60
2023-07-01T09:57:47.285Z,24.70
2023-07-01T10:00:16.488Z,24.80
2023-07-01T10:02:44.308Z,24.80
2023-07-01T10:05:11.457Z,24.80
2023-07-01T10:07:38.215Z,24.80
2023-07-01T10:10:05.064Z,24.80
2023-07-01T10:12:31.771Z,24.80
2023-07-01T10:14:58.450Z,24.70
2023-07-01T10:17:28.987Z,24.70
2023-07-01T10:19:55.623Z,24.60
2023-07-01T10:22:30.721Z,24.60
2023-07-01T10:25:05.084Z,24.60
2023-07-01T10:27:40.774Z,24.60
2023-07-01T10:30:13.253Z,24.60
2023-07-01T10:32:40.133Z,24.60
2023-07-01T10:35:06.881Z,24.60
2023-07-01T10:37:34.200Z,24.60
2023-07-01T10:40:01.421Z,24.60
2023-07-01T10:42:34.879Z,24.50
2023-07-01T10:45:14.231Z,24.60
2023-07-01T10:48:04.071Z,24.60
2023-07-01T10:50:31.174Z,24.80
2023-07-01T10:53:00.670Z,24.90
2023-07-01T10:55:48.235Z,24.90
2023-07-01T10:58:16.296Z,25.00
2023-07-01T11:00:43.435Z,25.00
2023-07-01T11:03:29.167Z,25.00
2023-07-01T11:06:01.780Z,25.00
2023-07-01T11:08:28.661Z,24.90
2023-07-01T11:10:55.325Z,24.90
2023-07-01T11:13:22.474Z,24.90
2023-07-01T11:16:07.733Z,24.90
2023-07-01T11:18:43.867Z,24.80
2023-07-01T11:21:11.720Z,24.80
2023-07-01T11:23:39.453Z,24.80
2023-07-01T11:26:06.158Z,24.80
2023-07-01T11:28:33.521Z,24.80
2023-07-01T11:31:16.748Z,24.70
2023-07-01T11:33:46.820Z,24.70
2023-07-01T11:36:14.973Z,24.70
2023-07-01T11:38:46.080Z,24.70
2023-07-01T11:41:13.421Z,24.70
2023-07-01T11:43:40.285Z,24.80
2023-07-01T11:46:07.203Z,24.90
2023-07-01T11:48:33.953Z,25.00
2023-07-01T11:51:00.694Z,25.10
2023-07-01T11:53:30.085Z,25.10
2023-07-01T11:55:57.707Z,25.10
2023-07-01T11:58:59.864Z,25.10
2023-07-01T12:01:27.887Z,25.10
2023-07-01T12:03:54.689Z,25.00
2023-07-01T12:06:21.962Z,25.10
2023-07-01T12:09:06.793Z,25.00
2023-07-01T12:11:43.506Z,25.00
2023-07-01T12:14:20.114Z,25.00
2023-07-01T12:16:51.093Z,24.90
2023-07-01T12:19:18.140Z,24.90
2023-07-01T12:21:44.872Z,24.80
2023-07-01T12:24:17.946Z,24.80
2023-07-01T12:26:44.616Z,24.80
2023-07-01T12:29:11.339Z,24.80
2023-07-01T12:31:38.068Z,24.80
2023-07-01T12:34:04.830Z,24.80
2023-07-01T12:36:32.533Z,24.90
2023-07-01T12:38:59.938Z,24.90
2023-07-01T12:41:27.031Z,25.00
2023-07-01T12:43:54.486Z,25.10
2023-07-01T12:46:21.378Z,25.10
2023-07-01T12:48:48.213Z,25.20
2023-07-01T12:51:14.879Z,25.20
2023-07-01T12:53:42.598Z,25.20
2023-07-01T12:56:09.274Z,25.10
2023-07-01T12:58:37.568Z,25.10
2023-07-01T13:01:07.047Z,25.10
2023-07-01T13:03:34.764Z,25.10
2023-07-01T13:06:02.165Z,25.00
2023-07-01T13:08:30.205Z,25.00
2023-07-01T13:10:56.982Z,24.90
2023-07-01T13:13:23.792Z,24.90
2023-07-01T13:15:50.676Z,24.90
2023-07-01T13:18:22.794Z,24.90
2023-07-01T13:20:49.775Z,24.80
2023-07-01T13:23:16.534Z,24.80
2023-07-01T13:25:43.246Z,24.80
2023-07-01T13:28:09.871Z,24.90
2023-07-01T13:30:42.663Z,24.90
2023-07-01T13:33:10.282Z,25.00
2023-07-01T13:35:37.579Z,25.10
2023-07-01T13:38:08.175Z,25.20
2023-07-01T13:40:35.992Z,25.20
2023-07-01T13:43:04.219Z,25.30
2023-07-01T13:45:30.977Z,25.20
2023-07-01T13:47:57.976Z,25.20
2023-07-01T13:50:25.137Z,25.20
2023-07-01T13:52:56.017Z,25.20
2023-07-01T13:55:24.994Z,25.10
2023-07-01T13:57:52.579Z,25.10
2023-07-01T14:00:41.483Z,25.00
2023-07-01T14:03:14.264Z,25.00
2023-07-01T14:05:42.114Z,25.00
2023-07-01T14:08:09.140Z,24.90
2023-07-01T14:10:38.905Z,24.90
2023-07-01T14:13:06.015Z,24.90
2023-07-01T14:15:34.989Z,24.80
2023-07-01T14:18:01.685Z,24.80
2023-07-01T14:20:28.345Z,24.80
2023-07-01T14:22:59.227Z,24.80
2023-07-01T14:25:34.013Z,24.80
2023-07-01T14:28:04.250Z,24.90
2023-07-01T14:30:43.744Z,25.00
2023-07-01T14:33:10.471Z,25.10
2023-07-01T14:35:37.150Z,25.10
2023-07-01T14:38:04.143Z,25.20
2023-07-01T14:40:30.886Z,25.20
2023-07-01T14:43:03.297Z,25.10
2023-07-01T14:45:30.048Z,25.10
2023-07-01T14:47:56.805Z,25.10
2023-07-01T14:50:23.424Z,25.00
2023-07-01T14:52:50.096Z,25.00
2023-07-01T14:55:16.703Z,24.90
2023-07-01T14:57:43.313Z,24.90
2023-07-01T15:00:10.395Z,24.80
2023-07-01T15:02:37.128Z,24.70
2023-07-01T15:05:04.096Z,24.70
2023-07-01T15:07:31.844Z,24.70
2023-07-01T15:09:58.466Z,24.70
2023-07-01T15:12:25.195Z,24.60
2023-07-01T15:14:51.834Z,24.60
2023-07-01T15:17:20.517Z,24.60
2023-07-01T15:19:47.176Z,24.60
2023-07-01T15:22:13.830Z,24.70
2023-07-01T15:24:40.657Z,24.80
2023-07-01T15:27:08.291Z,24.90
2023-07-01T15:29:34.942Z,25.00
2023-07-01T15:32:01.591Z,25.10
2023-07-01T15:34:28.229Z,25.10
2023-07-01T15:36:54.951Z,25.10
2023-07-01T15:39:21.585Z,25.10
2023-07-01T15:41:48.941Z,25.10
2023-07-01T15:44:15.635Z,25.00
2023-07-01T15:46:42.636Z,25.00
2023-07-01T15:49:09.575Z,25.00
2023-07-01T15:51:37.213Z,25.00
2023-07-01T15:54:04.091Z,24.90
2023-07-01T15:56:30.828Z,24.90
2023-07-01T15:58:57.610Z,24.90
2023-07-01T16:01:25.126Z,24.80
2023-07-01T16:03:51.824Z,24.80
2023-07-01T16:06:18.940Z,24.80
2023-07-01T16:08:45.842Z,24.80
2023-07-01T16:11:18.577Z,24.80
2023-07-01T16:13:45.473Z,24.90
2023-07-01T16:16:14.349Z,25.00
2023-07-01T16:18:50.498Z,25.10
2023-07-01T16:21:20.208Z,25.20
2023-07-01T16:23:56.717Z,25.20
2023-07-01T16:26:33.187Z,25.20
2023-07-01T16:29:00.039Z,25.20
2023-07-01T16:31:30.245Z,25.20
2023-07-01T16:33:57.447Z,25.20
2023-07-01T16:36:27.744Z,25.20
2023-07-01T16:39:01.073Z,25.10
2023-07-01T16:41:29.069Z,25.10
2023-07-01T16:43:55.900Z,25.00
2023-07-01T16:46:29.385Z,25.00
2023-07-01T16:48:57.634Z,25.00
2023-07-01T16:51:25.648Z,25.00
2023-07-01T16:54:00.377Z,24.90
2023-07-01T16:56:39.789Z,25.00
2023-07-01T16:59:06.476Z,25.00
2023-07-01T17:01:40.647Z,25.00
2023-07-01T17:04:07.364Z,25.20
2023-07-01T17:06:44.729Z,25.10
2023-07-01T17:09:30.253Z,25.20
2023-07-01T17:11:57.477Z,25.30
2023-07-01T17:14:24.269Z,25.30
2023-07-01T17:16:51.293Z,25.30
2023-07-01T17:19:18.001Z,25.30
2023-07-01T17:21:44.653Z,25.30
2023-07-01T17:24:11.735Z,25.20
2023-07-01T17:26:39.581Z,25.20
2023-07-01T17:29:06.255Z,25.20
2023-07-01T17:31:32.872Z,25.20
2023-07-01T17:33:59.585Z,25.10
2023-07-01T17:36:26.323Z,25.10
2023-07-01T17:38:53.192Z,25.10
2023-07-01T17:41:19.839Z,25.00
2023-07-01T17:43:46.540Z,25.00
2023-07-01T17:46:13.179Z,25.00
2023-07-01T17:48:39.973Z,25.00
2023-07-01T17:51:06.605Z,25.00
2023-07-01T17:53:33.216Z,25.10
2023-07-01T17:55:59.902Z,25.20
2023-07-01T17:58:26.640Z,25.20
2023-07-01T18:00:53.339Z,25.30
2023-07-01T18:03:20.132Z,25.40
2023-07-01T18:05:47.182Z,25.40
2023-07-01T18:08:14.115Z,25.40
2023-07-01T18:10:41.013Z,25.40
2023-07-01T18:13:07.750Z,25.30
2023-07-01T18:15:34.444Z,25.30
2023-07-01T18:18:01.179Z,25.20
2023-07-01T18:20:33.382Z,25.20
2023-07-01T18:23:05.372Z,25.20
2023-07-01T18:25:32.092Z,25.20
2023-07-01T18:27:58.733Z,25.10
2023-07-01T18:30:25.520Z,25.10
2023-07-01T18:32:52.245Z,25.10
2023-07-01T18:35:19.073Z,25.00
2023-07-01T18:37:46.587Z,25.00
2023-07-01T18:40:14.491Z,25.00
2023-07-01T18:42:41.379Z,25.00
2023-07-01T18:45:08.372Z,25.00
2023-07-01T18:47:35.420Z,25.00
2023-07-01T18:50:02.041Z,25.00
2023-07-01T18:52:28.782Z,25.10
2023-07-01T18:54:55.420Z,25.10
2023-07-01T18:57:22.573Z,25.20
2023-07-01T18:59:49.307Z,25.30
2023-07-01T19:02:16.144Z,25.30
2023-07-01T19:04:43.397Z,25.30
2023-07-01T19:07:12.134Z,25.30
2023-07-01T19:09:39.079Z,25.30
2023-07-01T19:12:05.824Z,25.30
2023-07-01T19:14:32.444Z,25.30
2023-07-01T19:16:59.298Z,25.20
2023-07-01T19:19:26.091Z,25.20
2023-07-01T19:21:52.749Z,25.20
2023-07-01T19:24:22.954Z,25.10
2023-07-01T19:26:51.515Z,25.10
2023-07-01T19:29:19.565Z,25.10
2023-07-01T19:31:46.217Z,25.00
2023-07-01T19:34:12.901Z,25.00
2023-07-01T19:36:46.937Z,25.00
2023-07-01T19:39:15.162Z,25.00
2023-07-01T19:41:41.918Z,24.90
2023-07-01T19:44:08.991Z,24.90
2023-07-01T19:46:36.808Z,24.90
2023-07-01T19:49:03.467Z,25.00
2023-07-01T19:51:30.225Z,24.90
2023-07-01T19:53:56.860Z,24.90
2023-07-01T19:56:23.540Z,24.90
2023-07-01T19:58:50.178Z,24.90
2023-07-01T20:01:16.854Z,25.00
2023-07-01T20:03:43.586Z,25.00
2023-07-01T20:06:10.331Z,25.10
2023-07-01T20:08:38.431Z,25.20
2023-07-01T20:11:06.461Z,25.30
2023-07-01T20:13:33.488Z,25.30
2023-07-01T20:16:00.243Z,25.30
2023-07-01T20:18:27.015Z,25.30
2023-07-01T20:20:53.729Z,25.30
2023-07-01T20:23:20.409Z,25.30
2023-07-01T20:25:47.420Z,25.20
2023-07-01T20:28:15.390Z,25.20
2023-07-01T20:30:42.237Z,25.20
2023-07-01T20:33:09.072Z,25.10
2023-07-01T20:35:35.754Z,25.10
2023-07-01T20:38:02.470Z,25.10
2023-07-01T20:40:30.465Z,25.00
2023-07-01T20:42:57.160Z,25.00
2023-07-01T20:45:24.008Z,25.00
2023-07-01T20:47:50.702Z,25.00
2023-07-01T20:50:17.429Z,25.00
2023-07-01T20:52:44.113Z,25.00
2023-07-01T20:55:11.508Z,24.90
2023-07-01T20:57:38.265Z,24.90
2023-07-01T21:00:05.180Z,24.90
2023-07-01T21:02:31.926Z,24.90
2023-07-01T21:04:58.623Z,24.80
2023-07-01T21:07:25.313Z,24.90
2023-07-01T21:09:51.915Z,24.90
2023-07-01T21:12:18.538Z,25.00
2023-07-01T21:14:45.366Z,25.10
2023-07-01T21:17:12.167Z,25.20
2023-07-01T21:19:39.191Z,25.20
2023-07-01T21:22:05.813Z,25.30
2023-07-01T21:24:32.436Z,25.40
2023-07-01T21:26:59.325Z,25.30
2023-07-01T21:29:26.105Z,25.30
2023-07-01T21:31:53.067Z,25.20
2023-07-01T21:34:20.630Z,25.20
2023-07-01T21:36:51.328Z,25.20
2023-07-01T21:39:22.462Z,25.10
2023-07-01T21:41:49.964Z,25.10
2023-07-01T21:44:17.064Z,25.10
2023-07-01T21:46:43.824Z,25.00
2023-07-01T21:49:10.805Z,25.00
2023-07-01T21:51:39.292Z,25.00
2023-07-01T21:54:06.061Z,24.90
2023-07-01T21:56:39.385Z,24.90
2023-07-01T21:59:06.343Z,24.90
2023-07-01T22:01:33.759Z,24.90
2023-07-01T22:04:01.763Z,24.80
2023-07-01T22:06:32.302Z,24.80
2023-07-01T22:08:59.101Z,24.80
2023-07-01T22:11:25.962Z,24.80
2023-07-01T22:13:52.707Z,24.80
2023-07-01T22:16:19.541Z,24.80
2023-07-01T22:18:46.400Z,24.80
2023-07-01T22:21:13.075Z,24.90
2023-07-01T22:23:39.796Z,24.90
2023-07-01T22:26:06.527Z,25.00
2023-07-01T22:28:34.411Z,25.10
2023-07-01T22:31:02.005Z,25.20
2023-07-01T22:33:29.349Z,25.20
2023-07-01T22:35:56.171Z,25.20
2023-07-01T22:38:23.101Z,25.30
2023-07-01T22:40:50.382Z,25.20
2023-07-01T22:43:17.300Z,25.20
2023-07-01T22:45:45.261Z,25.20
2023-07-01T22:48:12.109Z,25.10
2023-07-01T22:50:40.010Z,25.10
2023-07-01T22:53:06.647Z,25.00
2023-07-01T22:55:33.349Z,25.00
2023-07-01T22:58:00.019Z,25.00
2023-07-01T23:00:26.675Z,25.00
2023-07-01T23:02:53.468Z,25.00
2023-07-01T23:05:20.887Z,24.90
2023-07-01T23:07:48.386Z,24.90
2023-07-01T23:10:15.008Z,24.90
2023-07-01T23:12:41.798Z,24.90
2023-07-01T23:15:08.570Z,24.80
2023-07-01T23:17:35.370Z,24.80
2023-07-01T23:20:05.772Z,24.80
2023-07-01T23:22:39.255Z,24.80
2023-07-01T23:25:09.315Z,24.80
2023-07-01T23:27:44.955Z,24.80
2023-07-01T23:30:15.815Z,24.80
2023-07-01T23:32:47.082Z,24.90
2023-07-01T23:35:14.267Z,24.90
2023-07-01T23:37:41.014Z,25.00
2023-07-01T23:40:08.302Z,25.10
2023-07-01T23:42:37.105Z,25.20
2023-07-01T23:45:04.944Z,25.20
2023-07-01T23:47:31.694Z,25.20
2023-07-01T23:49:58.767Z,25.20
2023-07-01T23:52:25.400Z,25.20
2023-07-01T23:54:52.122Z,25.20
2023-07-01T23:57:19.654Z,25.10
2023-07-01T23:59:46.431Z,25.10
